SVR458 URSS-URMM
Flight info
| Callsign | SVR458 |
|---|---|
| Flight time | 0h 31m |
| Altitude | 19000 |
| Route | BINOL G487 ERSAR B967 ABELA ABELA5A |
| Aircraft | A321/M-SDE3FGHIRWY/LB1 |
Departure
| Time | 2026-04-24 11:09 |
|---|---|
| Airport | Sochi International Airport (URSS) |
Arrival
| Time | 2026-04-24 11:41 |
|---|---|
| Airport | Mineralnye Vody Airport (URMM) |
| Time | Latitude | Longitude | Altitude | Speed | Heading |
|---|---|---|---|---|---|
| 2026-04-24 10:53 | 43.44793 | 39.94311 | 75 ft | 0 kts | 334° |
| 2026-04-24 11:00 | 43.44791 | 39.94313 | 75 ft | 2 kts | 334° |
| 2026-04-24 11:00 | 43.44774 | 39.94323 | 64 ft | 3 kts | 334° |
| 2026-04-24 11:00 | 43.44756 | 39.94335 | 68 ft | 3 kts | 336° |
| 2026-04-24 11:00 | 43.44738 | 39.94346 | 64 ft | 3 kts | 339° |
| 2026-04-24 11:01 | 43.44719 | 39.94355 | 64 ft | 3 kts | 345° |
| 2026-04-24 11:01 | 43.44699 | 39.94360 | 66 ft | 3 kts | 359° |
| 2026-04-24 11:01 | 43.44681 | 39.94357 | 69 ft | 3 kts | 36° |
| 2026-04-24 11:01 | 43.44674 | 39.94349 | 68 ft | 0 kts | 65° |
| 2026-04-24 11:03 | 43.44675 | 39.94352 | 69 ft | 3 kts | 65° |
| 2026-04-24 11:04 | 43.44678 | 39.94360 | 64 ft | 0 kts | 65° |
| 2026-04-24 11:04 | 43.44684 | 39.94377 | 64 ft | 8 kts | 65° |
| 2026-04-24 11:05 | 43.44728 | 39.94510 | 67 ft | 22 kts | 65° |
| 2026-04-24 11:05 | 43.44806 | 39.94739 | 71 ft | 27 kts | 66° |
| 2026-04-24 11:05 | 43.44888 | 39.94980 | 67 ft | 22 kts | 64° |
| 2026-04-24 11:05 | 43.44955 | 39.95165 | 84 ft | 27 kts | 64° |
| 2026-04-24 11:06 | 43.45044 | 39.95425 | 92 ft | 29 kts | 64° |
| 2026-04-24 11:06 | 43.45038 | 39.95517 | 93 ft | 0 kts | 141° |
| 2026-04-24 11:06 | 43.45006 | 39.95555 | 90 ft | 8 kts | 134° |
| 2026-04-24 11:07 | 43.45118 | 39.95861 | 88 ft | 25 kts | 30° |
| 2026-04-24 11:07 | 43.45276 | 39.95987 | 93 ft | 25 kts | 28° |
| 2026-04-24 11:07 | 43.45374 | 39.95997 | 95 ft | 9 kts | 302° |
| 2026-04-24 11:08 | 43.45368 | 39.95920 | 97 ft | 0 kts | 232° |
| 2026-04-24 11:08 | 43.45333 | 39.95882 | 96 ft | 26 kts | 218° |
| 2026-04-24 11:08 | 43.44857 | 39.95541 | 91 ft | 120 kts | 204° |
| 2026-04-24 11:09 | 43.43947 | 39.94821 | 364 ft | 166 kts | 207° |
| 2026-04-24 11:09 | 43.42916 | 39.94049 | 1462 ft | 172 kts | 204° |
| 2026-04-24 11:09 | 43.41942 | 39.93087 | 2145 ft | 184 kts | 230° |
| 2026-04-24 11:09 | 43.41618 | 39.91251 | 2462 ft | 220 kts | 276° |
| 2026-04-24 11:10 | 43.42374 | 39.89293 | 2853 ft | 252 kts | 316° |
| 2026-04-24 11:10 | 43.44017 | 39.88235 | 3334 ft | 275 kts | 354° |
| 2026-04-24 11:10 | 43.45899 | 39.88694 | 4136 ft | 280 kts | 28° |
| 2026-04-24 11:10 | 43.47500 | 39.90244 | 5039 ft | 284 kts | 42° |
| 2026-04-24 11:11 | 43.48964 | 39.92089 | 5902 ft | 288 kts | 43° |
| 2026-04-24 11:11 | 43.50400 | 39.93918 | 6732 ft | 292 kts | 42° |
| 2026-04-24 11:11 | 43.51928 | 39.95868 | 7574 ft | 297 kts | 41° |
| 2026-04-24 11:11 | 43.53522 | 39.97707 | 8354 ft | 301 kts | 34° |
| 2026-04-24 11:12 | 43.55265 | 39.99335 | 9162 ft | 304 kts | 29° |
| 2026-04-24 11:12 | 43.57058 | 40.00842 | 9949 ft | 308 kts | 27° |
| 2026-04-24 11:12 | 43.58941 | 40.02373 | 10421 ft | 326 kts | 27° |
| 2026-04-24 11:12 | 43.60959 | 40.04024 | 10670 ft | 348 kts | 27° |
| 2026-04-24 11:13 | 43.63056 | 40.05783 | 11223 ft | 357 kts | 28° |
| 2026-04-24 11:13 | 43.65168 | 40.07598 | 11950 ft | 362 kts | 29° |
| 2026-04-24 11:13 | 43.67212 | 40.09679 | 12626 ft | 370 kts | 40° |
| 2026-04-24 11:13 | 43.68955 | 40.12335 | 13352 ft | 377 kts | 52° |
| 2026-04-24 11:14 | 43.70319 | 40.15449 | 14029 ft | 382 kts | 66° |
| 2026-04-24 11:14 | 43.71408 | 40.18823 | 14586 ft | 387 kts | 67° |
| 2026-04-24 11:14 | 43.72504 | 40.22230 | 15222 ft | 391 kts | 66° |
| 2026-04-24 11:14 | 43.73623 | 40.25690 | 15851 ft | 397 kts | 66° |
| 2026-04-24 11:15 | 43.74760 | 40.29205 | 16408 ft | 403 kts | 65° |
| 2026-04-24 11:15 | 43.75927 | 40.32822 | 16961 ft | 409 kts | 65° |
| 2026-04-24 11:15 | 43.77079 | 40.36401 | 17549 ft | 414 kts | 65° |
| 2026-04-24 11:15 | 43.78276 | 40.40118 | 18028 ft | 420 kts | 65° |
| 2026-04-24 11:16 | 43.79471 | 40.43830 | 18543 ft | 424 kts | 65° |
| 2026-04-24 11:16 | 43.80660 | 40.47533 | 18876 ft | 429 kts | 64° |
| 2026-04-24 11:16 | 43.81887 | 40.51368 | 18954 ft | 427 kts | 64° |
| 2026-04-24 11:16 | 43.83062 | 40.55048 | 18929 ft | 423 kts | 63° |
| 2026-04-24 11:17 | 43.84267 | 40.58823 | 18935 ft | 422 kts | 64° |
| 2026-04-24 11:17 | 43.85451 | 40.62531 | 18925 ft | 421 kts | 64° |
| 2026-04-24 11:17 | 43.86631 | 40.66239 | 18893 ft | 421 kts | 64° |
| 2026-04-24 11:17 | 43.87790 | 40.69893 | 18897 ft | 421 kts | 64° |
| 2026-04-24 11:18 | 43.88970 | 40.73628 | 18900 ft | 422 kts | 64° |
| 2026-04-24 11:18 | 43.90140 | 40.77357 | 18896 ft | 422 kts | 64° |
| 2026-04-24 11:18 | 43.91313 | 40.81127 | 18867 ft | 419 kts | 65° |
| 2026-04-24 11:18 | 43.92449 | 40.84790 | 18869 ft | 418 kts | 65° |
| 2026-04-24 11:19 | 43.93613 | 40.88544 | 18869 ft | 418 kts | 65° |
| 2026-04-24 11:19 | 43.94757 | 40.92244 | 18841 ft | 417 kts | 65° |
| 2026-04-24 11:19 | 43.95901 | 40.95951 | 18841 ft | 417 kts | 65° |
| 2026-04-24 11:19 | 43.97042 | 40.99655 | 18825 ft | 418 kts | 65° |
| 2026-04-24 11:20 | 43.98168 | 41.03310 | 18830 ft | 418 kts | 65° |
| 2026-04-24 11:20 | 43.99311 | 41.07018 | 18823 ft | 418 kts | 65° |
| 2026-04-24 11:20 | 44.00453 | 41.10736 | 18839 ft | 418 kts | 65° |
| 2026-04-24 11:20 | 44.01599 | 41.14459 | 18856 ft | 419 kts | 66° |
| 2026-04-24 11:21 | 44.02759 | 41.18233 | 18848 ft | 420 kts | 66° |
| 2026-04-24 11:21 | 44.03888 | 41.21911 | 18839 ft | 420 kts | 66° |
| 2026-04-24 11:21 | 44.05050 | 41.25698 | 18836 ft | 420 kts | 66° |
| 2026-04-24 11:21 | 44.06178 | 41.29386 | 18836 ft | 420 kts | 66° |
| 2026-04-24 11:22 | 44.07320 | 41.33124 | 18840 ft | 421 kts | 66° |
| 2026-04-24 11:22 | 44.08443 | 41.36813 | 18842 ft | 421 kts | 66° |
| 2026-04-24 11:22 | 44.09580 | 41.40562 | 18841 ft | 421 kts | 66° |
| 2026-04-24 11:22 | 44.10883 | 41.44882 | 18861 ft | 421 kts | 68° |
| 2026-04-24 11:23 | 44.11745 | 41.48775 | 18860 ft | 421 kts | 79° |
| 2026-04-24 11:24 | 44.11954 | 41.52705 | 19455 ft | 407 kts | 94° |
| 2026-04-24 11:25 | 44.12013 | 41.56657 | 19647 ft | 412 kts | 89° |
| 2026-04-24 11:25 | 44.12282 | 41.60662 | 19043 ft | 417 kts | 84° |
| 2026-04-24 11:25 | 44.12690 | 41.64678 | 18847 ft | 419 kts | 83° |
| 2026-04-24 11:25 | 44.13122 | 41.68692 | 18837 ft | 419 kts | 83° |
| 2026-04-24 11:26 | 44.13518 | 41.72716 | 18840 ft | 420 kts | 84° |
| 2026-04-24 11:26 | 44.13750 | 41.75384 | 18843 ft | 420 kts | 85° |
| 2026-04-24 11:26 | 44.14057 | 41.79423 | 18822 ft | 420 kts | 86° |
| 2026-04-24 11:26 | 44.14326 | 41.83469 | 18850 ft | 420 kts | 87° |
| 2026-04-24 11:27 | 44.14575 | 41.87536 | 18853 ft | 424 kts | 88° |
| 2026-04-24 11:27 | 44.14821 | 41.91653 | 18864 ft | 430 kts | 87° |
| 2026-04-24 11:27 | 44.15075 | 41.95815 | 18851 ft | 431 kts | 87° |
| 2026-04-24 11:27 | 44.15338 | 41.99974 | 18851 ft | 432 kts | 87° |
| 2026-04-24 11:28 | 44.15611 | 42.04133 | 18863 ft | 432 kts | 87° |
| 2026-04-24 11:28 | 44.15887 | 42.08302 | 18862 ft | 432 kts | 87° |
| 2026-04-24 11:28 | 44.16162 | 42.12466 | 18863 ft | 432 kts | 87° |
| 2026-04-24 11:28 | 44.16437 | 42.16633 | 18862 ft | 432 kts | 87° |
| 2026-04-24 11:29 | 44.16710 | 42.20797 | 18868 ft | 432 kts | 87° |
| 2026-04-24 11:29 | 44.16978 | 42.24958 | 18867 ft | 432 kts | 87° |
| 2026-04-24 11:29 | 44.17240 | 42.29123 | 18866 ft | 431 kts | 87° |
| 2026-04-24 11:29 | 44.17496 | 42.33280 | 18867 ft | 432 kts | 87° |
| 2026-04-24 11:30 | 44.17755 | 42.37445 | 18844 ft | 432 kts | 88° |
| 2026-04-24 11:30 | 44.18016 | 42.41619 | 18858 ft | 432 kts | 88° |
| 2026-04-24 11:30 | 44.18274 | 42.45771 | 18915 ft | 431 kts | 87° |
| 2026-04-24 11:30 | 44.18535 | 42.49937 | 18832 ft | 430 kts | 88° |
| 2026-04-24 11:31 | 44.18786 | 42.54028 | 18707 ft | 415 kts | 88° |
| 2026-04-24 11:31 | 44.19035 | 42.57981 | 18329 ft | 409 kts | 86° |
| 2026-04-24 11:31 | 44.19716 | 42.61888 | 17158 ft | 424 kts | 68° |
| 2026-04-24 11:31 | 44.20900 | 42.65697 | 15953 ft | 430 kts | 66° |
| 2026-04-24 11:32 | 44.22485 | 42.70660 | 14437 ft | 415 kts | 66° |
| 2026-04-24 11:32 | 44.23298 | 42.73105 | 13699 ft | 408 kts | 62° |
| 2026-04-24 11:32 | 44.25027 | 42.76143 | 12474 ft | 395 kts | 37° |
| 2026-04-24 11:32 | 44.27373 | 42.77919 | 11299 ft | 378 kts | 15° |
| 2026-04-24 11:33 | 44.29816 | 42.79026 | 10172 ft | 370 kts | 14° |
| 2026-04-24 11:33 | 44.32140 | 42.80473 | 8992 ft | 366 kts | 35° |
| 2026-04-24 11:33 | 44.33810 | 42.83077 | 7811 ft | 357 kts | 63° |
| 2026-04-24 11:33 | 44.34471 | 42.86269 | 6808 ft | 338 kts | 86° |
| 2026-04-24 11:34 | 44.34746 | 42.89372 | 6710 ft | 300 kts | 84° |
| 2026-04-24 11:34 | 44.34590 | 42.92160 | 5795 ft | 289 kts | 116° |
| 2026-04-24 11:34 | 44.33422 | 42.94338 | 5033 ft | 273 kts | 151° |
| 2026-04-24 11:34 | 44.31748 | 42.95388 | 4752 ft | 259 kts | 169° |
| 2026-04-24 11:35 | 44.30034 | 42.95584 | 4644 ft | 240 kts | 188° |
| 2026-04-24 11:35 | 44.28484 | 42.95087 | 4635 ft | 212 kts | 208° |
| 2026-04-24 11:35 | 44.27347 | 42.94090 | 4624 ft | 183 kts | 228° |
| 2026-04-24 11:35 | 44.26665 | 42.92761 | 4606 ft | 156 kts | 254° |
| 2026-04-24 11:36 | 44.26448 | 42.91325 | 4668 ft | 145 kts | 269° |
| 2026-04-24 11:36 | 44.26526 | 42.89967 | 4694 ft | 139 kts | 288° |
| 2026-04-24 11:36 | 44.26968 | 42.88779 | 4426 ft | 140 kts | 313° |
| 2026-04-24 11:36 | 44.27802 | 42.88105 | 4087 ft | 141 kts | 342° |
| 2026-04-24 11:37 | 44.28779 | 42.88295 | 3728 ft | 150 kts | 21° |
| 2026-04-24 11:37 | 44.29446 | 42.89443 | 3370 ft | 162 kts | 67° |
| 2026-04-24 11:37 | 44.29449 | 42.91035 | 3133 ft | 163 kts | 97° |
| 2026-04-24 11:37 | 44.29203 | 42.92567 | 3089 ft | 162 kts | 102° |
| 2026-04-24 11:38 | 44.28851 | 42.94071 | 2962 ft | 163 kts | 109° |
| 2026-04-24 11:38 | 44.28396 | 42.95511 | 2773 ft | 163 kts | 114° |
| 2026-04-24 11:38 | 44.27841 | 42.96892 | 2578 ft | 164 kts | 119° |
| 2026-04-24 11:38 | 44.27240 | 42.98238 | 2366 ft | 163 kts | 120° |
| 2026-04-24 11:39 | 44.26629 | 42.99584 | 2151 ft | 163 kts | 121° |
| 2026-04-24 11:39 | 44.26028 | 43.00905 | 1918 ft | 160 kts | 120° |
| 2026-04-24 11:39 | 44.25430 | 43.02213 | 1718 ft | 161 kts | 118° |
| 2026-04-24 11:39 | 44.24832 | 43.03512 | 1507 ft | 157 kts | 121° |
| 2026-04-24 11:40 | 44.24245 | 43.04806 | 1290 ft | 158 kts | 120° |
| 2026-04-24 11:40 | 44.23678 | 43.06087 | 1110 ft | 154 kts | 119° |
| 2026-04-24 11:40 | 44.23156 | 43.07309 | 1048 ft | 122 kts | 118° |
| 2026-04-24 11:40 | 44.22847 | 43.07950 | 1049 ft | 52 kts | 126° |
| 2026-04-24 11:41 | 44.22653 | 43.08340 | 1052 ft | 47 kts | 122° |
| 2026-04-24 11:41 | 44.22497 | 43.08693 | 1055 ft | 37 kts | 126° |
| 2026-04-24 11:41 | 44.22292 | 43.08893 | 1052 ft | 36 kts | 151° |
| 2026-04-24 11:41 | 44.22089 | 43.09043 | 1052 ft | 13 kts | 153° |
| 2026-04-24 11:42 | 44.22085 | 43.09046 | 1052 ft | 0 kts | 153° |
| 2026-04-24 11:42 | 44.22081 | 43.09049 | 1052 ft | 3 kts | 153° |
| 2026-04-24 11:42 | 44.22024 | 43.09089 | 1052 ft | 15 kts | 153° |
| 2026-04-24 11:43 | 44.21925 | 43.09113 | 1051 ft | 14 kts | 221° |
| 2026-04-24 11:43 | 44.21908 | 43.09094 | 1051 ft | 0 kts | 218° |
| 2026-04-24 11:44 | 44.21868 | 43.09049 | 1051 ft | 6 kts | 219° |